sensor_id;sensor_type;location;lat;lon;timestamp;temperature;humidity
56162;DHT22;42045;52.986;6.014;2023-05-28T00:00:29;10.90;99.90
56162;DHT22;42045;52.986;6.014;2023-05-28T00:02:55;11.00;99.90
56162;DHT22;42045;52.986;6.014;2023-05-28T00:05:22;10.90;99.90
56162;DHT22;42045;52.986;6.014;2023-05-28T00:07:48;10.90;99.90
56162;DHT22;42045;52.986;6.014;2023-05-28T00:10:14;10.90;99.90
56162;DHT22;42045;52.986;6.014;2023-05-28T00:12:40;10.90;99.90
56162;DHT22;42045;52.986;6.014;2023-05-28T00:15:06;10.90;99.90
56162;DHT22;42045;52.986;6.014;2023-05-28T00:17:33;10.90;99.90
56162;DHT22;42045;52.986;6.014;2023-05-28T00:19:58;10.90;99.90
56162;DHT22;42045;52.986;6.014;2023-05-28T00:22:24;10.90;99.90
56162;DHT22;42045;52.986;6.014;2023-05-28T00:24:50;10.90;99.90
56162;DHT22;42045;52.986;6.014;2023-05-28T00:27:16;11.00;99.90
56162;DHT22;42045;52.986;6.014;2023-05-28T00:29:42;10.90;99.90
56162;DHT22;42045;52.986;6.014;2023-05-28T00:32:09;10.90;99.90
56162;DHT22;42045;52.986;6.014;2023-05-28T00:34:35;10.90;99.90
56162;DHT22;42045;52.986;6.014;2023-05-28T00:37:00;10.90;99.90
56162;DHT22;42045;52.986;6.014;2023-05-28T00:39:26;10.90;99.90
56162;DHT22;42045;52.986;6.014;2023-05-28T00:42:02;10.80;99.90
56162;DHT22;42045;52.986;6.014;2023-05-28T00:44:29;10.80;99.90
56162;DHT22;42045;52.986;6.014;2023-05-28T00:46:54;10.80;99.90
56162;DHT22;42045;52.986;6.014;2023-05-28T00:49:21;10.80;99.90
56162;DHT22;42045;52.986;6.014;2023-05-28T00:51:48;10.80;99.90
56162;DHT22;42045;52.986;6.014;2023-05-28T00:54:15;10.80;99.90
56162;DHT22;42045;52.986;6.014;2023-05-28T00:56:41;10.80;99.90
56162;DHT22;42045;52.986;6.014;2023-05-28T00:59:07;10.80;99.90
56162;DHT22;42045;52.986;6.014;2023-05-28T01:01:33;10.80;99.90
56162;DHT22;42045;52.986;6.014;2023-05-28T01:04:00;10.80;99.90
56162;DHT22;42045;52.986;6.014;2023-05-28T01:06:27;10.70;99.90
56162;DHT22;42045;52.986;6.014;2023-05-28T01:08:54;10.70;99.90
56162;DHT22;42045;52.986;6.014;2023-05-28T01:11:21;10.70;99.90
56162;DHT22;42045;52.986;6.014;2023-05-28T01:13:47;10.70;99.90
56162;DHT22;42045;52.986;6.014;2023-05-28T01:16:13;10.60;99.90
56162;DHT22;42045;52.986;6.014;2023-05-28T01:18:39;10.60;99.90
56162;DHT22;42045;52.986;6.014;2023-05-28T01:21:07;10.60;99.90
56162;DHT22;42045;52.986;6.014;2023-05-28T01:23:44;10.60;99.90
56162;DHT22;42045;52.986;6.014;2023-05-28T01:26:12;10.60;99.90
56162;DHT22;42045;52.986;6.014;2023-05-28T01:28:38;10.60;99.90
56162;DHT22;42045;52.986;6.014;2023-05-28T01:31:10;10.50;99.90
56162;DHT22;42045;52.986;6.014;2023-05-28T01:33:36;10.50;99.90
56162;DHT22;42045;52.986;6.014;2023-05-28T01:36:04;10.40;99.90
56162;DHT22;42045;52.986;6.014;2023-05-28T01:38:31;10.40;99.90
56162;DHT22;42045;52.986;6.014;2023-05-28T01:40:59;10.40;99.90
56162;DHT22;42045;52.986;6.014;2023-05-28T01:43:27;10.40;99.90
56162;DHT22;42045;52.986;6.014;2023-05-28T01:45:53;10.40;99.90
56162;DHT22;42045;52.986;6.014;2023-05-28T01:48:20;10.40;99.90
56162;DHT22;42045;52.986;6.014;2023-05-28T01:50:46;10.40;99.90
56162;DHT22;42045;52.986;6.014;2023-05-28T01:53:11;10.40;99.90
56162;DHT22;42045;52.986;6.014;2023-05-28T01:55:38;10.40;99.90
56162;DHT22;42045;52.986;6.014;2023-05-28T01:58:04;10.40;99.90
56162;DHT22;42045;52.986;6.014;2023-05-28T02:00:30;10.50;99.90
56162;DHT22;42045;52.986;6.014;2023-05-28T02:02:57;10.40;99.90
56162;DHT22;42045;52.986;6.014;2023-05-28T02:05:22;10.40;99.90
56162;DHT22;42045;52.986;6.014;2023-05-28T02:07:48;10.40;99.90
56162;DHT22;42045;52.986;6.014;2023-05-28T02:10:14;10.30;99.90
56162;DHT22;42045;52.986;6.014;2023-05-28T02:12:40;10.40;99.90
56162;DHT22;42045;52.986;6.014;2023-05-28T02:15:06;10.40;99.90
56162;DHT22;42045;52.986;6.014;2023-05-28T02:17:32;10.40;99.90
56162;DHT22;42045;52.986;6.014;2023-05-28T02:19:58;10.40;99.90
56162;DHT22;42045;52.986;6.014;2023-05-28T02:22:23;10.40;99.90
56162;DHT22;42045;52.986;6.014;2023-05-28T02:24:49;10.50;99.90
56162;DHT22;42045;52.986;6.014;2023-05-28T02:27:15;10.50;99.90
56162;DHT22;42045;52.986;6.014;2023-05-28T02:29:42;10.50;99.90
56162;DHT22;42045;52.986;6.014;2023-05-28T02:32:08;10.50;99.90
56162;DHT22;42045;52.986;6.014;2023-05-28T02:34:34;10.50;99.90
56162;DHT22;42045;52.986;6.014;2023-05-28T02:36:59;10.50;99.90
56162;DHT22;42045;52.986;6.014;2023-05-28T02:39:26;10.50;99.90
56162;DHT22;42045;52.986;6.014;2023-05-28T02:41:52;10.40;99.90
56162;DHT22;42045;52.986;6.014;2023-05-28T02:44:18;10.30;99.90
56162;DHT22;42045;52.986;6.014;2023-05-28T02:46:44;10.30;99.90
56162;DHT22;42045;52.986;6.014;2023-05-28T02:49:10;10.20;99.90
56162;DHT22;42045;52.986;6.014;2023-05-28T02:51:35;10.20;99.90
56162;DHT22;42045;52.986;6.014;2023-05-28T02:54:01;10.20;99.90
56162;DHT22;42045;52.986;6.014;2023-05-28T02:56:26;10.10;99.90
56162;DHT22;42045;52.986;6.014;2023-05-28T02:58:52;10.10;99.90
56162;DHT22;42045;52.986;6.014;2023-05-28T03:01:18;10.10;99.90
56162;DHT22;42045;52.986;6.014;2023-05-28T03:03:44;10.10;99.90
56162;DHT22;42045;52.986;6.014;2023-05-28T03:06:09;10.10;99.90
56162;DHT22;42045;52.986;6.014;2023-05-28T03:08:36;10.10;99.90
56162;DHT22;42045;52.986;6.014;2023-05-28T03:11:02;10.10;99.90
56162;DHT22;42045;52.986;6.014;2023-05-28T03:13:27;10.10;99.90
56162;DHT22;42045;52.986;6.014;2023-05-28T03:15:53;10.10;99.90
56162;DHT22;42045;52.986;6.014;2023-05-28T03:18:18;10.20;99.90
56162;DHT22;42045;52.986;6.014;2023-05-28T03:20:44;10.10;99.90
56162;DHT22;42045;52.986;6.014;2023-05-28T03:23:10;10.10;99.90
56162;DHT22;42045;52.986;6.014;2023-05-28T03:25:36;10.10;99.90
56162;DHT22;42045;52.986;6.014;2023-05-28T03:28:01;10.20;99.90
56162;DHT22;42045;52.986;6.014;2023-05-28T03:30:27;10.20;99.90
56162;DHT22;42045;52.986;6.014;2023-05-28T03:32:53;10.20;99.90
56162;DHT22;42045;52.986;6.014;2023-05-28T03:35:18;10.20;99.90
56162;DHT22;42045;52.986;6.014;2023-05-28T03:37:44;10.20;99.90
56162;DHT22;42045;52.986;6.014;2023-05-28T03:40:10;10.30;99.90
56162;DHT22;42045;52.986;6.014;2023-05-28T03:42:37;10.20;99.90
56162;DHT22;42045;52.986;6.014;2023-05-28T03:45:03;10.20;99.90
56162;DHT22;42045;52.986;6.014;2023-05-28T03:47:29;10.20;99.90
56162;DHT22;42045;52.986;6.014;2023-05-28T03:49:57;10.30;99.90
56162;DHT22;42045;52.986;6.014;2023-05-28T03:52:24;10.30;99.90
56162;DHT22;42045;52.986;6.014;2023-05-28T03:54:50;10.30;99.90
56162;DHT22;42045;52.986;6.014;2023-05-28T03:57:15;10.30;99.90
56162;DHT22;42045;52.986;6.014;2023-05-28T03:59:41;10.30;99.90
56162;DHT22;42045;52.986;6.014;2023-05-28T04:02:07;10.30;99.90
56162;DHT22;42045;52.986;6.014;2023-05-28T04:04:32;10.30;99.90
56162;DHT22;42045;52.986;6.014;2023-05-28T04:06:58;10.40;99.90
56162;DHT22;42045;52.986;6.014;2023-05-28T04:09:23;10.50;99.90
56162;DHT22;42045;52.986;6.014;2023-05-28T04:11:50;10.50;99.90
56162;DHT22;42045;52.986;6.014;2023-05-28T04:14:15;10.60;99.90
56162;DHT22;42045;52.986;6.014;2023-05-28T04:16:41;10.70;99.90
56162;DHT22;42045;52.986;6.014;2023-05-28T04:19:06;11.00;99.90
56162;DHT22;42045;52.986;6.014;2023-05-28T04:21:32;11.40;99.90
56162;DHT22;42045;52.986;6.014;2023-05-28T04:23:58;12.00;99.90
56162;DHT22;42045;52.986;6.014;2023-05-28T04:26:24;12.40;99.90
56162;DHT22;42045;52.986;6.014;2023-05-28T04:28:50;12.80;99.90
56162;DHT22;42045;52.986;6.014;2023-05-28T04:31:18;13.20;99.90
56162;DHT22;42045;52.986;6.014;2023-05-28T04:33:44;13.90;99.90
56162;DHT22;42045;52.986;6.014;2023-05-28T04:36:12;14.70;99.90
56162;DHT22;42045;52.986;6.014;2023-05-28T04:38:41;15.70;99.90
56162;DHT22;42045;52.986;6.014;2023-05-28T04:41:07;16.80;99.90
56162;DHT22;42045;52.986;6.014;2023-05-28T04:43:33;17.70;99.90
56162;DHT22;42045;52.986;6.014;2023-05-28T04:46:01;18.00;99.90
56162;DHT22;42045;52.986;6.014;2023-05-28T04:48:29;17.90;99.90
56162;DHT22;42045;52.986;6.014;2023-05-28T04:50:57;17.40;99.90
56162;DHT22;42045;52.986;6.014;2023-05-28T04:53:22;17.10;99.90
56162;DHT22;42045;52.986;6.014;2023-05-28T04:55:48;17.30;99.90
56162;DHT22;42045;52.986;6.014;2023-05-28T04:58:14;17.50;99.90
56162;DHT22;42045;52.986;6.014;2023-05-28T05:00:40;17.50;99.90
56162;DHT22;42045;52.986;6.014;2023-05-28T05:03:05;17.40;99.90
56162;DHT22;42045;52.986;6.014;2023-05-28T05:05:31;17.20;99.90
56162;DHT22;42045;52.986;6.014;2023-05-28T05:07:56;16.70;99.90
56162;DHT22;42045;52.986;6.014;2023-05-28T05:10:22;16.50;99.90
56162;DHT22;42045;52.986;6.014;2023-05-28T05:12:48;16.30;99.90
56162;DHT22;42045;52.986;6.014;2023-05-28T05:15:13;16.20;99.90
56162;DHT22;42045;52.986;6.014;2023-05-28T05:17:39;16.00;99.90
56162;DHT22;42045;52.986;6.014;2023-05-28T05:20:06;15.80;99.90
56162;DHT22;42045;52.986;6.014;2023-05-28T05:22:32;15.60;99.90
56162;DHT22;42045;52.986;6.014;2023-05-28T05:24:58;15.70;99.90
56162;DHT22;42045;52.986;6.014;2023-05-28T05:27:23;16.00;99.90
56162;DHT22;42045;52.986;6.014;2023-05-28T05:29:49;16.70;99.90
56162;DHT22;42045;52.986;6.014;2023-05-28T05:32:15;17.60;99.90
56162;DHT22;42045;52.986;6.014;2023-05-28T05:34:40;17.90;99.90
56162;DHT22;42045;52.986;6.014;2023-05-28T05:37:06;18.80;99.90
56162;DHT22;42045;52.986;6.014;2023-05-28T05:39:32;20.20;99.90
56162;DHT22;42045;52.986;6.014;2023-05-28T05:41:57;20.50;99.90
56162;DHT22;42045;52.986;6.014;2023-05-28T05:44:23;21.10;99.90
56162;DHT22;42045;52.986;6.014;2023-05-28T05:46:49;21.50;99.90
56162;DHT22;42045;52.986;6.014;2023-05-28T05:49:15;22.10;99.90
56162;DHT22;42045;52.986;6.014;2023-05-28T05:51:40;22.40;99.90
56162;DHT22;42045;52.986;6.014;2023-05-28T05:54:06;22.40;99.90
56162;DHT22;42045;52.986;6.014;2023-05-28T05:56:32;23.30;99.90
56162;DHT22;42045;52.986;6.014;2023-05-28T05:58:58;23.90;99.90
56162;DHT22;42045;52.986;6.014;2023-05-28T06:01:24;24.20;99.90
56162;DHT22;42045;52.986;6.014;2023-05-28T06:03:50;25.00;99.90
56162;DHT22;42045;52.986;6.014;2023-05-28T06:06:16;25.10;99.50
56162;DHT22;42045;52.986;6.014;2023-05-28T06:08:42;25.10;99.60
56162;DHT22;42045;52.986;6.014;2023-05-28T06:11:08;25.80;99.50
56162;DHT22;42045;52.986;6.014;2023-05-28T06:13:34;25.80;98.10
56162;DHT22;42045;52.986;6.014;2023-05-28T06:16:02;26.50;97.40
56162;DHT22;42045;52.986;6.014;2023-05-28T06:18:30;27.00;98.20
56162;DHT22;42045;52.986;6.014;2023-05-28T06:20:56;27.30;96.70
56162;DHT22;42045;52.986;6.014;2023-05-28T06:23:22;27.80;96.60
56162;DHT22;42045;52.986;6.014;2023-05-28T06:25:47;26.70;95.10
56162;DHT22;42045;52.986;6.014;2023-05-28T06:28:13;25.80;95.50
56162;DHT22;42045;52.986;6.014;2023-05-28T06:30:39;24.70;96.70
56162;DHT22;42045;52.986;6.014;2023-05-28T06:33:08;24.60;97.40
56162;DHT22;42045;52.986;6.014;2023-05-28T06:35:35;24.10;97.30
56162;DHT22;42045;52.986;6.014;2023-05-28T06:38:01;24.00;97.70
56162;DHT22;42045;52.986;6.014;2023-05-28T06:40:27;24.70;98.30
56162;DHT22;42045;52.986;6.014;2023-05-28T06:42:52;25.60;97.40
56162;DHT22;42045;52.986;6.014;2023-05-28T06:45:18;25.90;96.90
56162;DHT22;42045;52.986;6.014;2023-05-28T06:47:45;26.00;96.30
56162;DHT22;42045;52.986;6.014;2023-05-28T06:50:11;25.60;96.20
56162;DHT22;42045;52.986;6.014;2023-05-28T06:52:37;25.90;95.80
56162;DHT22;42045;52.986;6.014;2023-05-28T06:55:03;25.80;94.80
56162;DHT22;42045;52.986;6.014;2023-05-28T06:57:32;26.40;95.60
56162;DHT22;42045;52.986;6.014;2023-05-28T06:59:58;26.40;94.90
56162;DHT22;42045;52.986;6.014;2023-05-28T07:02:23;27.00;94.40
56162;DHT22;42045;52.986;6.014;2023-05-28T07:04:49;27.10;93.50
56162;DHT22;42045;52.986;6.014;2023-05-28T07:07:15;27.20;93.10
56162;DHT22;42045;52.986;6.014;2023-05-28T07:09:41;27.60;94.30
56162;DHT22;42045;52.986;6.014;2023-05-28T07:12:06;27.60;93.00
56162;DHT22;42045;52.986;6.014;2023-05-28T07:14:32;27.60;92.80
56162;DHT22;42045;52.986;6.014;2023-05-28T07:16:58;26.90;94.20
56162;DHT22;42045;52.986;6.014;2023-05-28T07:19:23;26.40;94.40
56162;DHT22;42045;52.986;6.014;2023-05-28T07:21:49;25.20;95.80
56162;DHT22;42045;52.986;6.014;2023-05-28T07:24:15;24.70;96.80
56162;DHT22;42045;52.986;6.014;2023-05-28T07:26:40;24.10;98.30
56162;DHT22;42045;52.986;6.014;2023-05-28T07:29:06;23.30;98.50
56162;DHT22;42045;52.986;6.014;2023-05-28T07:31:32;22.30;99.30
56162;DHT22;42045;52.986;6.014;2023-05-28T07:33:57;22.00;99.90
56162;DHT22;42045;52.986;6.014;2023-05-28T07:36:23;22.10;99.90
56162;DHT22;42045;52.986;6.014;2023-05-28T07:38:49;21.50;99.90
56162;DHT22;42045;52.986;6.014;2023-05-28T07:41:15;21.50;99.90
56162;DHT22;42045;52.986;6.014;2023-05-28T07:43:41;21.30;99.90
56162;DHT22;42045;52.986;6.014;2023-05-28T07:46:07;21.50;99.90
56162;DHT22;42045;52.986;6.014;2023-05-28T07:48:32;21.80;99.90
56162;DHT22;42045;52.986;6.014;2023-05-28T07:50:58;22.10;99.90
56162;DHT22;42045;52.986;6.014;2023-05-28T07:53:24;21.90;99.90
56162;DHT22;42045;52.986;6.014;2023-05-28T07:55:50;22.00;99.90
56162;DHT22;42045;52.986;6.014;2023-05-28T07:58:16;22.00;99.90
56162;DHT22;42045;52.986;6.014;2023-05-28T08:00:41;22.20;99.30
56162;DHT22;42045;52.986;6.014;2023-05-28T08:03:07;21.60;97.40
56162;DHT22;42045;52.986;6.014;2023-05-28T08:05:33;21.80;98.10
56162;DHT22;42045;52.986;6.014;2023-05-28T08:07:59;21.90;97.80
56162;DHT22;42045;52.986;6.014;2023-05-28T08:10:25;22.00;96.90
56162;DHT22;42045;52.986;6.014;2023-05-28T08:12:50;21.90;96.70
56162;DHT22;42045;52.986;6.014;2023-05-28T08:15:16;22.00;95.90
56162;DHT22;42045;52.986;6.014;2023-05-28T08:17:42;21.40;95.70
56162;DHT22;42045;52.986;6.014;2023-05-28T08:20:08;21.10;96.60
56162;DHT22;42045;52.986;6.014;2023-05-28T08:22:35;21.20;96.80
56162;DHT22;42045;52.986;6.014;2023-05-28T08:25:01;20.70;96.30
56162;DHT22;42045;52.986;6.014;2023-05-28T08:27:27;20.40;96.80
56162;DHT22;42045;52.986;6.014;2023-05-28T08:29:52;20.30;97.50
56162;DHT22;42045;52.986;6.014;2023-05-28T08:32:18;20.10;96.90
56162;DHT22;42045;52.986;6.014;2023-05-28T08:34:44;20.00;97.00
56162;DHT22;42045;52.986;6.014;2023-05-28T08:37:10;20.00;94.90
56162;DHT22;42045;52.986;6.014;2023-05-28T08:39:36;20.10;96.40
56162;DHT22;42045;52.986;6.014;2023-05-28T08:42:02;20.00;95.20
56162;DHT22;42045;52.986;6.014;2023-05-28T08:44:28;20.40;96.10
56162;DHT22;42045;52.986;6.014;2023-05-28T08:46:55;20.60;96.10
56162;DHT22;42045;52.986;6.014;2023-05-28T08:49:29;20.70;97.30
56162;DHT22;42045;52.986;6.014;2023-05-28T08:52:01;20.50;97.10
56162;DHT22;42045;52.986;6.014;2023-05-28T08:54:29;21.00;96.80
56162;DHT22;42045;52.986;6.014;2023-05-28T08:56:55;20.80;95.10
56162;DHT22;42045;52.986;6.014;2023-05-28T08:59:21;20.80;95.70
56162;DHT22;42045;52.986;6.014;2023-05-28T09:01:49;21.00;93.40
56162;DHT22;42045;52.986;6.014;2023-05-28T09:04:15;21.10;93.60
56162;DHT22;42045;52.986;6.014;2023-05-28T09:06:41;21.30;93.10
56162;DHT22;42045;52.986;6.014;2023-05-28T09:09:07;21.40;92.90
56162;DHT22;42045;52.986;6.014;2023-05-28T09:11:37;21.50;94.10
56162;DHT22;42045;52.986;6.014;2023-05-28T09:14:12;21.70;93.80
56162;DHT22;42045;52.986;6.014;2023-05-28T09:16:42;21.70;92.30
56162;DHT22;42045;52.986;6.014;2023-05-28T09:19:09;21.70;93.20
56162;DHT22;42045;52.986;6.014;2023-05-28T09:21:35;21.80;93.90
56162;DHT22;42045;52.986;6.014;2023-05-28T09:24:03;21.90;93.80
56162;DHT22;42045;52.986;6.014;2023-05-28T09:26:33;21.30;93.00
56162;DHT22;42045;52.986;6.014;2023-05-28T09:28:59;21.70;93.20
56162;DHT22;42045;52.986;6.014;2023-05-28T09:31:29;21.70;92.90
56162;DHT22;42045;52.986;6.014;2023-05-28T09:33:59;21.50;91.80
56162;DHT22;42045;52.986;6.014;2023-05-28T09:36:26;21.60;93.00
56162;DHT22;42045;52.986;6.014;2023-05-28T09:38:52;21.70;93.00
56162;DHT22;42045;52.986;6.014;2023-05-28T09:41:25;21.70;92.90
56162;DHT22;42045;52.986;6.014;2023-05-28T09:43:58;21.80;92.40
56162;DHT22;42045;52.986;6.014;2023-05-28T09:48:53;21.90;93.10
56162;DHT22;42045;52.986;6.014;2023-05-28T09:51:21;21.70;92.90
56162;DHT22;42045;52.986;6.014;2023-05-28T09:53:50;21.60;92.30
56162;DHT22;42045;52.986;6.014;2023-05-28T09:56:21;21.60;91.10
56162;DHT22;42045;52.986;6.014;2023-05-28T09:58:50;21.90;91.60
56162;DHT22;42045;52.986;6.014;2023-05-28T10:01:18;21.70;91.90
56162;DHT22;42045;52.986;6.014;2023-05-28T10:03:49;22.10;91.90
56162;DHT22;42045;52.986;6.014;2023-05-28T10:06:18;22.20;90.90
56162;DHT22;42045;52.986;6.014;2023-05-28T10:08:51;22.20;92.30
56162;DHT22;42045;52.986;6.014;2023-05-28T10:11:31;22.00;89.70
56162;DHT22;42045;52.986;6.014;2023-05-28T10:13:59;21.90;89.70
56162;DHT22;42045;52.986;6.014;2023-05-28T10:16:25;21.80;88.30
56162;DHT22;42045;52.986;6.014;2023-05-28T10:18:53;21.80;90.50
56162;DHT22;42045;52.986;6.014;2023-05-28T10:21:19;22.10;89.10
56162;DHT22;42045;52.986;6.014;2023-05-28T10:23:45;22.10;87.10
56162;DHT22;42045;52.986;6.014;2023-05-28T10:26:13;22.30;87.00
56162;DHT22;42045;52.986;6.014;2023-05-28T10:28:39;22.30;87.90
56162;DHT22;42045;52.986;6.014;2023-05-28T10:31:07;22.30;90.60
56162;DHT22;42045;52.986;6.014;2023-05-28T10:33:43;21.90;91.30
56162;DHT22;42045;52.986;6.014;2023-05-28T10:36:10;22.00;91.00
56162;DHT22;42045;52.986;6.014;2023-05-28T10:38:43;22.10;90.30
56162;DHT22;42045;52.986;6.014;2023-05-28T10:41:10;21.80;90.70
56162;DHT22;42045;52.986;6.014;2023-05-28T10:49:04;22.40;88.70
56162;DHT22;42045;52.986;6.014;2023-05-28T10:57:08;22.10;89.60
56162;DHT22;42045;52.986;6.014;2023-05-28T11:02:21;22.10;89.30
56162;DHT22;42045;52.986;6.014;2023-05-28T11:04:50;22.10;87.30
56162;DHT22;42045;52.986;6.014;2023-05-28T11:07:17;22.20;90.40
56162;DHT22;42045;52.986;6.014;2023-05-28T11:09:47;22.30;88.90
56162;DHT22;42045;52.986;6.014;2023-05-28T11:12:14;22.30;87.20
56162;DHT22;42045;52.986;6.014;2023-05-28T11:14:40;22.20;86.80
56162;DHT22;42045;52.986;6.014;2023-05-28T11:17:11;22.30;86.40
56162;DHT22;42045;52.986;6.014;2023-05-28T11:19:44;22.10;86.40
56162;DHT22;42045;52.986;6.014;2023-05-28T11:22:11;22.00;85.70
56162;DHT22;42045;52.986;6.014;2023-05-28T11:27:16;21.80;90.10
56162;DHT22;42045;52.986;6.014;2023-05-28T11:29:41;21.90;89.90
56162;DHT22;42045;52.986;6.014;2023-05-28T11:32:07;22.10;90.90
56162;DHT22;42045;52.986;6.014;2023-05-28T11:34:33;22.20;90.50
56162;DHT22;42045;52.986;6.014;2023-05-28T11:36:59;22.20;90.10
56162;DHT22;42045;52.986;6.014;2023-05-28T11:39:25;22.20;91.30
56162;DHT22;42045;52.986;6.014;2023-05-28T11:41:50;22.20;91.20
56162;DHT22;42045;52.986;6.014;2023-05-28T11:44:20;22.30;93.80
56162;DHT22;42045;52.986;6.014;2023-05-28T11:46:49;22.40;94.00
56162;DHT22;42045;52.986;6.014;2023-05-28T11:49:16;22.60;94.40
56162;DHT22;42045;52.986;6.014;2023-05-28T11:51:41;22.70;94.70
56162;DHT22;42045;52.986;6.014;2023-05-28T11:54:07;22.60;94.20
56162;DHT22;42045;52.986;6.014;2023-05-28T11:56:34;22.60;94.80
56162;DHT22;42045;52.986;6.014;2023-05-28T11:59:01;22.30;93.40
56162;DHT22;42045;52.986;6.014;2023-05-28T12:01:26;22.40;94.70
56162;DHT22;42045;52.986;6.014;2023-05-28T12:04:06;22.40;94.40
56162;DHT22;42045;52.986;6.014;2023-05-28T12:06:33;22.40;94.60
56162;DHT22;42045;52.986;6.014;2023-05-28T12:09:05;22.40;94.50
56162;DHT22;42045;52.986;6.014;2023-05-28T12:11:31;22.40;95.60
56162;DHT22;42045;52.986;6.014;2023-05-28T12:13:57;22.40;96.30
56162;DHT22;42045;52.986;6.014;2023-05-28T12:16:25;22.30;96.80
56162;DHT22;42045;52.986;6.014;2023-05-28T12:18:51;22.20;95.90
56162;DHT22;42045;52.986;6.014;2023-05-28T12:21:25;22.30;95.90
56162;DHT22;42045;52.986;6.014;2023-05-28T12:23:51;22.00;97.70
56162;DHT22;42045;52.986;6.014;2023-05-28T12:26:20;21.70;98.20
56162;DHT22;42045;52.986;6.014;2023-05-28T12:28:47;21.70;98.50
56162;DHT22;42045;52.986;6.014;2023-05-28T12:31:12;21.80;98.30
56162;DHT22;42045;52.986;6.014;2023-05-28T12:33:39;21.40;98.50
56162;DHT22;42045;52.986;6.014;2023-05-28T12:36:05;21.20;98.60
56162;DHT22;42045;52.986;6.014;2023-05-28T12:38:32;21.10;99.50
56162;DHT22;42045;52.986;6.014;2023-05-28T12:40:58;21.30;99.90
56162;DHT22;42045;52.986;6.014;2023-05-28T12:43:24;21.10;99.40
56162;DHT22;42045;52.986;6.014;2023-05-28T12:45:50;21.30;99.90
56162;DHT22;42045;52.986;6.014;2023-05-28T12:48:15;21.20;99.60
56162;DHT22;42045;52.986;6.014;2023-05-28T12:50:41;20.70;99.90
56162;DHT22;42045;52.986;6.014;2023-05-28T12:53:07;20.70;99.90
56162;DHT22;42045;52.986;6.014;2023-05-28T12:55:33;20.70;99.90
56162;DHT22;42045;52.986;6.014;2023-05-28T12:57:59;20.50;99.90
56162;DHT22;42045;52.986;6.014;2023-05-28T13:00:25;20.50;99.90
56162;DHT22;42045;52.986;6.014;2023-05-28T13:02:51;20.60;99.90
56162;DHT22;42045;52.986;6.014;2023-05-28T13:05:16;20.70;99.90
56162;DHT22;42045;52.986;6.014;2023-05-28T13:07:43;20.40;99.90
56162;DHT22;42045;52.986;6.014;2023-05-28T13:10:10;20.70;99.90
56162;DHT22;42045;52.986;6.014;2023-05-28T13:12:36;20.70;99.90
56162;DHT22;42045;52.986;6.014;2023-05-28T13:15:04;20.20;99.90
56162;DHT22;42045;52.986;6.014;2023-05-28T13:17:30;20.10;99.90
56162;DHT22;42045;52.986;6.014;2023-05-28T13:19:56;20.00;99.90
56162;DHT22;42045;52.986;6.014;2023-05-28T13:22:21;20.00;99.90
56162;DHT22;42045;52.986;6.014;2023-05-28T13:24:47;20.10;99.90
56162;DHT22;42045;52.986;6.014;2023-05-28T13:27:13;20.30;99.90
56162;DHT22;42045;52.986;6.014;2023-05-28T13:29:39;20.10;99.90
56162;DHT22;42045;52.986;6.014;2023-05-28T13:32:06;20.00;99.90
56162;DHT22;42045;52.986;6.014;2023-05-28T13:34:31;20.30;99.90
56162;DHT22;42045;52.986;6.014;2023-05-28T13:36:57;20.10;99.90
56162;DHT22;42045;52.986;6.014;2023-05-28T13:39:23;20.10;99.90
56162;DHT22;42045;52.986;6.014;2023-05-28T13:41:50;20.10;99.90
56162;DHT22;42045;52.986;6.014;2023-05-28T13:44:17;20.10;99.90
56162;DHT22;42045;52.986;6.014;2023-05-28T13:46:43;19.90;99.90
56162;DHT22;42045;52.986;6.014;2023-05-28T13:49:09;19.80;99.90
56162;DHT22;42045;52.986;6.014;2023-05-28T13:51:35;20.00;99.90
56162;DHT22;42045;52.986;6.014;2023-05-28T13:54:01;20.10;99.90
56162;DHT22;42045;52.986;6.014;2023-05-28T13:56:26;20.00;99.90
56162;DHT22;42045;52.986;6.014;2023-05-28T13:58:52;20.00;99.90
56162;DHT22;42045;52.986;6.014;2023-05-28T14:01:18;19.90;99.90
56162;DHT22;42045;52.986;6.014;2023-05-28T14:03:43;19.90;99.90
56162;DHT22;42045;52.986;6.014;2023-05-28T14:06:11;19.90;99.90
56162;DHT22;42045;52.986;6.014;2023-05-28T14:08:36;19.90;99.90
56162;DHT22;42045;52.986;6.014;2023-05-28T14:11:02;20.10;99.90
56162;DHT22;42045;52.986;6.014;2023-05-28T14:13:28;20.10;99.90
56162;DHT22;42045;52.986;6.014;2023-05-28T14:15:57;20.10;99.90
56162;DHT22;42045;52.986;6.014;2023-05-28T14:18:23;20.20;99.90
56162;DHT22;42045;52.986;6.014;2023-05-28T14:20:48;20.30;99.90
56162;DHT22;42045;52.986;6.014;2023-05-28T14:23:14;20.30;99.90
56162;DHT22;42045;52.986;6.014;2023-05-28T14:25:40;20.40;99.90
56162;DHT22;42045;52.986;6.014;2023-05-28T14:28:05;20.10;99.90
56162;DHT22;42045;52.986;6.014;2023-05-28T14:30:31;19.90;99.90
56162;DHT22;42045;52.986;6.014;2023-05-28T14:32:57;19.70;99.90
56162;DHT22;42045;52.986;6.014;2023-05-28T14:35:22;19.60;99.90
56162;DHT22;42045;52.986;6.014;2023-05-28T14:37:48;19.50;99.90
56162;DHT22;42045;52.986;6.014;2023-05-28T14:40:19;19.30;99.90
56162;DHT22;42045;52.986;6.014;2023-05-28T14:42:45;19.40;99.90
56162;DHT22;42045;52.986;6.014;2023-05-28T14:45:11;19.40;99.90
56162;DHT22;42045;52.986;6.014;2023-05-28T14:47:37;19.20;99.90
56162;DHT22;42045;52.986;6.014;2023-05-28T14:50:03;19.20;99.90
56162;DHT22;42045;52.986;6.014;2023-05-28T14:52:30;19.20;99.90
56162;DHT22;42045;52.986;6.014;2023-05-28T14:54:57;19.50;99.90
56162;DHT22;42045;52.986;6.014;2023-05-28T14:57:24;19.50;99.90
56162;DHT22;42045;52.986;6.014;2023-05-28T14:59:51;19.50;99.90
56162;DHT22;42045;52.986;6.014;2023-05-28T15:02:17;19.50;99.90
56162;DHT22;42045;52.986;6.014;2023-05-28T15:04:43;19.60;99.90
56162;DHT22;42045;52.986;6.014;2023-05-28T15:07:10;19.40;99.90
56162;DHT22;42045;52.986;6.014;2023-05-28T15:09:36;19.50;99.90
56162;DHT22;42045;52.986;6.014;2023-05-28T15:12:02;19.30;99.90
56162;DHT22;42045;52.986;6.014;2023-05-28T15:14:28;19.40;99.90
56162;DHT22;42045;52.986;6.014;2023-05-28T15:16:56;19.50;99.90
56162;DHT22;42045;52.986;6.014;2023-05-28T15:19:23;19.40;99.90
56162;DHT22;42045;52.986;6.014;2023-05-28T15:21:49;19.30;99.90
56162;DHT22;42045;52.986;6.014;2023-05-28T15:24:15;19.30;99.90
56162;DHT22;42045;52.986;6.014;2023-05-28T15:26:44;19.20;99.90
56162;DHT22;42045;52.986;6.014;2023-05-28T15:29:12;18.90;99.90
56162;DHT22;42045;52.986;6.014;2023-05-28T15:31:44;18.90;99.90
56162;DHT22;42045;52.986;6.014;2023-05-28T15:34:11;18.90;99.90
56162;DHT22;42045;52.986;6.014;2023-05-28T15:36:36;18.90;99.90
56162;DHT22;42045;52.986;6.014;2023-05-28T15:39:03;18.70;99.90
56162;DHT22;42045;52.986;6.014;2023-05-28T15:41:30;18.70;99.90
56162;DHT22;42045;52.986;6.014;2023-05-28T15:43:56;18.70;99.90